Time;durP1;ratioP1;P1;durP2;ratioP2;P2;SDS_P1;SDS_P2;PMS_P1;PMS_P2;Temp;Humidity;BMP_temperature;BMP_pressure;BME280_temperature;BME280_humidity;BME280_pressure;Samples;Min_cycle;Max_cycle;Signal;HPM_P1;HPM_P2
2023/06/14 00:00:20;;;;;;;1.33;1.23;;;26.00;41.70;;;;;;4208964;28;20559;-61
2023/06/14 00:03:03;;;;;;;1.35;1.10;;;25.90;41.60;;;;;;4224568;28;20065;-59
2023/06/14 00:05:46;;;;;;;1.30;1.20;;;25.90;41.60;;;;;;4226037;28;20116;-60
2023/06/14 00:08:27;;;;;;;3.05;1.15;;;25.90;41.80;;;;;;4225897;28;20050;-59
2023/06/14 00:11:08;;;;;;;1.35;1.13;;;25.90;42.20;;;;;;4208570;28;20063;-49
2023/06/14 00:13:49;;;;;;;3.00;1.30;;;25.90;42.10;;;;;;4209085;28;20051;-50
2023/06/14 00:16:30;;;;;;;;;;;25.90;42.20;;;;;;4209543;28;20394;-50
2023/06/14 00:19:13;;;;;;;3.80;1.50;;;25.90;42.50;;;;;;4208716;28;20386;-49
2023/06/14 00:21:54;;;;;;;1.75;1.23;;;25.90;42.70;;;;;;4219565;27;20055;-48
2023/06/14 00:24:35;;;;;;;1.55;1.20;;;25.80;42.60;;;;;;4209100;28;20055;-49
2023/06/14 00:27:15;;;;;;;5.57;1.20;;;25.80;42.60;;;;;;4209123;28;20055;-49
2023/06/14 00:29:58;;;;;;;1.60;1.45;;;25.80;42.40;;;;;;4223113;28;20055;-50
2023/06/14 00:32:39;;;;;;;1.33;1.23;;;25.80;42.70;;;;;;4233800;27;20046;-48
2023/06/14 00:35:22;;;;;;;2.58;1.80;;;25.80;42.90;;;;;;4240683;27;20104;-54
2023/06/14 00:38:03;;;;;;;3.20;1.35;;;25.70;42.60;;;;;;4211210;28;20079;-51
2023/06/14 00:40:43;;;;;;;1.73;1.23;;;25.70;43.00;;;;;;4211806;28;20047;-52
2023/06/14 00:43:26;;;;;;;1.55;1.33;;;25.70;43.00;;;;;;4219231;28;20061;-54
2023/06/14 00:46:07;;;;;;;3.47;1.25;;;25.70;43.00;;;;;;4227899;28;20070;-49
2023/06/14 00:48:50;;;;;;;4.13;1.20;;;25.70;43.00;;;;;;4245241;27;20065;-50
2023/06/14 00:51:32;;;;;;;1.63;1.15;;;25.70;43.00;;;;;;4246091;27;20053;-50
2023/06/14 00:54:13;;;;;;;2.10;1.30;;;25.60;43.00;;;;;;4212213;28;20174;-51
2023/06/14 00:56:54;;;;;;;4.72;1.27;;;25.60;43.20;;;;;;4210714;28;20043;-51
2023/06/14 00:59:36;;;;;;;2.08;1.27;;;25.60;43.40;;;;;;4219499;27;20054;-49
2023/06/14 01:02:18;;;;;;;1.23;0.98;;;25.60;43.20;;;;;;4210137;28;20051;-53
2023/06/14 01:05:00;;;;;;;2.22;1.17;;;25.60;43.30;;;;;;4211823;28;20158;-54
2023/06/14 01:07:56;;;;;;;2.65;1.65;;;25.60;43.80;;;;;;4216970;27;20070;-55
2023/06/14 01:10:49;;;;;;;2.58;1.40;;;25.50;43.40;;;;;;4211264;28;20156;-63
2023/06/14 01:13:34;;;;;;;2.67;1.27;;;25.50;43.40;;;;;;4211271;28;20189;-58
2023/06/14 01:16:15;;;;;;;5.63;1.63;;;25.50;43.60;;;;;;4208643;28;20059;-55
2023/06/14 01:18:57;;;;;;;2.97;1.20;;;25.50;43.60;;;;;;4225333;28;20042;-58
2023/06/14 01:21:41;;;;;;;1.45;1.35;;;25.40;43.80;;;;;;4225199;28;20050;-54
2023/06/14 01:24:25;;;;;;;2.58;1.25;;;25.40;43.80;;;;;;4228628;27;20104;-52
2023/06/14 01:27:08;;;;;;;4.50;1.30;;;25.40;43.90;;;;;;4227182;27;20054;-51
2023/06/14 01:29:49;;;;;;;1.75;1.27;;;25.40;44.10;;;;;;4217488;28;20050;-52
2023/06/14 01:32:31;;;;;;;1.30;1.20;;;25.40;44.70;;;;;;4210352;28;20059;-51
2023/06/14 01:35:14;;;;;;;1.50;1.45;;;25.40;44.10;;;;;;4211254;28;20108;-52
2023/06/14 01:37:57;;;;;;;1.77;1.45;;;25.40;44.20;;;;;;4229032;27;20062;-51
2023/06/14 01:40:40;;;;;;;2.75;1.65;;;25.30;44.20;;;;;;4215725;28;20493;-51
2023/06/14 01:43:22;;;;;;;1.73;1.17;;;25.30;44.20;;;;;;4228174;27;20059;-50
2023/06/14 01:46:04;;;;;;;3.15;1.67;;;25.30;44.40;;;;;;4210199;28;20055;-52
2023/06/14 01:48:45;;;;;;;2.85;1.80;;;25.30;44.50;;;;;;4210807;28;20806;-50
2023/06/14 01:51:26;;;;;;;4.07;1.55;;;25.30;44.70;;;;;;4212310;28;20059;-49
2023/06/14 01:54:07;;;;;;;1.60;1.50;;;25.30;44.80;;;;;;4227002;27;20055;-55
2023/06/14 01:56:49;;;;;;;1.95;1.48;;;25.30;44.70;;;;;;4225329;28;20579;-51
2023/06/14 01:59:31;;;;;;;2.75;1.48;;;25.30;44.80;;;;;;4221728;28;20129;-53
2023/06/14 02:02:12;;;;;;;1.88;1.60;;;25.20;44.90;;;;;;4209692;28;20145;-56
2023/06/14 02:04:57;;;;;;;2.40;1.50;;;25.30;45.90;;;;;;4210083;28;20452;-53
2023/06/14 02:07:38;;;;;;;1.92;1.58;;;25.30;45.20;;;;;;4211053;28;20165;-54
2023/06/14 02:10:19;;;;;;;;;;;25.20;45.70;;;;;;4209964;28;20051;-54
2023/06/14 02:13:02;;;;;;;;;;;25.20;45.10;;;;;;4211246;28;20056;-52
2023/06/14 02:15:43;;;;;;;2.55;1.65;;;25.20;45.20;;;;;;4213447;28;19927;-51
2023/06/14 02:18:25;;;;;;;3.00;1.75;;;25.10;45.60;;;;;;4226390;28;20050;-51
2023/06/14 02:21:06;;;;;;;3.15;1.50;;;25.10;45.50;;;;;;4210670;28;20501;-54
2023/06/14 02:23:47;;;;;;;3.65;1.75;;;25.10;45.50;;;;;;4225796;27;20136;-53
2023/06/14 02:26:29;;;;;;;2.13;1.92;;;25.10;45.40;;;;;;4225784;27;20051;-51
2023/06/14 02:29:14;;;;;;;1.70;1.60;;;25.10;45.60;;;;;;4225886;28;20059;-50
2023/06/14 02:31:55;;;;;;;2.50;1.75;;;25.10;45.60;;;;;;4227009;27;20628;-52
2023/06/14 02:34:36;;;;;;;3.35;2.10;;;25.10;45.60;;;;;;4227162;27;20050;-54
2023/06/14 02:37:17;;;;;;;1.65;1.52;;;25.00;46.30;;;;;;4232061;27;20051;-55
2023/06/14 02:40:00;;;;;;;1.52;1.42;;;25.00;45.60;;;;;;4209959;28;20182;-55
2023/06/14 02:42:41;;;;;;;2.65;1.50;;;25.00;45.70;;;;;;4225835;27;20505;-54
2023/06/14 02:45:23;;;;;;;2.47;1.85;;;25.00;46.10;;;;;;4210198;28;20051;-50
2023/06/14 02:48:05;;;;;;;2.65;2.08;;;25.00;46.70;;;;;;4240873;27;20066;-49
2023/06/14 02:50:47;;;;;;;2.22;2.00;;;25.00;46.00;;;;;;4209734;28;20505;-54
2023/06/14 02:53:28;;;;;;;2.00;1.88;;;25.00;46.10;;;;;;4208743;28;20055;-55
2023/06/14 02:56:08;;;;;;;1.70;1.60;;;25.00;46.20;;;;;;4208317;28;20189;-53
2023/06/14 02:58:50;;;;;;;2.08;1.88;;;25.00;46.20;;;;;;4223078;28;20251;-52
2023/06/14 03:01:34;;;;;;;2.20;1.90;;;24.90;46.30;;;;;;4213900;28;20047;-50
2023/06/14 03:04:20;;;;;;;4.43;1.60;;;24.90;46.40;;;;;;4213382;28;20180;-49
2023/06/14 03:07:02;;;;;;;5.28;2.05;;;24.90;46.40;;;;;;4208305;28;20050;-50
2023/06/14 03:09:44;;;;;;;3.38;2.25;;;24.90;46.60;;;;;;4208204;28;20197;-49
2023/06/14 03:12:26;;;;;;;2.35;2.15;;;24.90;46.50;;;;;;4225994;27;20520;-53
2023/06/14 03:15:08;;;;;;;2.90;1.83;;;24.90;46.50;;;;;;4236703;27;20057;-56
2023/06/14 03:17:54;;;;;;;2.25;1.92;;;24.90;46.50;;;;;;4208225;28;20054;-52
2023/06/14 03:20:35;;;;;;;1.80;1.70;;;24.80;46.80;;;;;;4223615;27;20051;-53
2023/06/14 03:23:16;;;;;;;;;;;24.80;46.80;;;;;;4225043;28;20043;-57
2023/06/14 03:25:57;;;;;;;3.03;1.73;;;24.80;47.60;;;;;;4223804;27;19931;-57
2023/06/14 03:28:38;;;;;;;2.30;2.10;;;24.80;47.10;;;;;;4225364;28;20149;-54
2023/06/14 03:31:19;;;;;;;;;;;24.80;47.00;;;;;;4225036;28;20136;-56
2023/06/14 03:34:02;;;;;;;6.85;2.63;;;24.80;47.10;;;;;;4208054;28;20089;-55
2023/06/14 03:36:44;;;;;;;2.40;1.65;;;24.80;47.20;;;;;;4207187;28;20581;-57
2023/06/14 03:39:24;;;;;;;2.30;2.20;;;24.80;47.20;;;;;;4206010;28;20054;-51
2023/06/14 03:42:06;;;;;;;3.97;2.38;;;24.70;47.30;;;;;;4208547;28;20058;-53
2023/06/14 03:44:48;;;;;;;1.90;1.70;;;24.80;47.30;;;;;;4240149;27;20120;-53
2023/06/14 03:47:30;;;;;;;2.45;1.92;;;24.80;47.20;;;;;;4241486;27;20045;-54
2023/06/14 03:50:13;;;;;;;2.15;2.05;;;24.80;47.20;;;;;;4207833;28;20051;-53
2023/06/14 03:52:54;;;;;;;2.65;1.80;;;24.80;47.40;;;;;;4219842;27;20054;-54
2023/06/14 03:55:37;;;;;;;2.47;1.88;;;24.80;47.40;;;;;;4224595;28;20058;-53
2023/06/14 03:58:38;;;;;;;4.57;2.08;;;24.80;48.30;;;;;;4224431;28;20050;-53
2023/06/14 04:01:19;;;;;;;3.00;2.22;;;24.70;47.40;;;;;;4207708;28;20545;-53
2023/06/14 04:04:01;;;;;;;2.47;2.28;;;24.80;47.70;;;;;;4223233;28;20546;-54
2023/06/14 04:06:43;;;;;;;;;;;24.80;47.80;;;;;;4226029;27;20050;-52
2023/06/14 04:09:25;;;;;;;2.53;2.00;;;24.80;47.80;;;;;;4207529;28;19930;-56
2023/06/14 04:12:08;;;;;;;2.97;2.10;;;24.80;48.00;;;;;;4216402;28;20066;-53
2023/06/14 04:14:49;;;;;;;3.42;2.20;;;24.80;48.00;;;;;;4224171;28;20042;-52
2023/06/14 04:17:32;;;;;;;2.65;2.15;;;24.80;48.10;;;;;;4219898;28;20047;-54
2023/06/14 04:20:13;;;;;;;2.42;2.22;;;24.80;48.00;;;;;;4207237;28;20039;-54
2023/06/14 04:22:58;;;;;;;3.15;2.20;;;24.80;47.90;;;;;;4217361;28;20074;-52
2023/06/14 04:25:40;;;;;;;4.18;2.10;;;24.80;48.80;;;;;;4222717;28;20177;-54
2023/06/14 04:28:25;;;;;;;3.15;2.30;;;24.80;48.00;;;;;;4219943;28;20051;-53
2023/06/14 04:31:08;;;;;;;4.78;2.50;;;24.80;48.20;;;;;;4206708;28;20055;-53
2023/06/14 04:33:50;;;;;;;3.00;2.67;;;24.80;48.00;;;;;;4222100;28;20128;-54
2023/06/14 04:36:36;;;;;;;6.03;3.22;;;24.80;47.90;;;;;;4224241;28;20054;-53
2023/06/14 04:39:19;;;;;;;3.95;3.55;;;24.80;48.10;;;;;;4224395;28;20046;-55
2023/06/14 04:42:03;;;;;;;5.05;4.03;;;24.80;48.10;;;;;;4208882;28;20055;-56
2023/06/14 04:44:44;;;;;;;4.72;4.18;;;24.80;48.10;;;;;;4233941;27;20116;-56
2023/06/14 04:47:29;;;;;;;7.00;3.40;;;24.80;48.20;;;;;;4221578;28;20047;-55
2023/06/14 04:50:12;;;;;;;5.15;3.20;;;24.80;48.20;;;;;;4229369;27;20099;-56
2023/06/14 04:52:54;;;;;;;3.65;3.35;;;24.80;48.30;;;;;;4234737;28;20054;-54
2023/06/14 04:55:38;;;;;;;3.55;3.35;;;24.80;48.30;;;;;;4223789;28;20638;-65
2023/06/14 04:58:19;;;;;;;4.28;3.58;;;24.80;48.30;;;;;;4207084;28;20054;-57
2023/06/14 05:01:02;;;;;;;4.65;3.88;;;24.80;48.30;;;;;;4206585;28;20089;-59
2023/06/14 05:03:44;;;;;;;5.20;3.65;;;24.80;48.20;;;;;;4207261;28;20055;-52
2023/06/14 05:06:27;;;;;;;6.15;4.38;;;24.80;48.30;;;;;;4199237;28;20058;-53
2023/06/14 05:09:08;;;;;;;5.03;4.13;;;24.80;49.00;;;;;;4222512;28;20055;-51
2023/06/14 05:11:51;;;;;;;;;;;24.80;50.70;;;;;;4219988;28;20509;-54
2023/06/14 05:14:32;;;;;;;4.88;4.38;;;24.90;52.00;;;;;;4213292;28;19926;-58
2023/06/14 05:17:13;;;;;;;5.72;4.82;;;24.90;52.30;;;;;;4195208;28;20410;-58
2023/06/14 05:19:55;;;;;;;6.30;4.50;;;24.90;52.00;;;;;;4215720;27;20125;-57
2023/06/14 05:22:36;;;;;;;6.47;4.80;;;24.90;51.70;;;;;;4243702;27;20189;-58
2023/06/14 05:25:17;;;;;;;5.90;5.18;;;25.00;50.70;;;;;;4234356;27;20204;-58
2023/06/14 05:27:59;;;;;;;5.50;5.07;;;25.10;50.50;;;;;;4221533;27;20051;-58
2023/06/14 05:30:41;;;;;;;5.35;4.85;;;25.20;50.20;;;;;;4230104;27;20046;-58
2023/06/14 05:33:21;;;;;;;6.90;4.55;;;25.30;49.60;;;;;;4228817;27;20054;-58
2023/06/14 05:36:02;;;;;;;8.63;4.20;;;25.40;48.90;;;;;;4228202;27;20062;-55
2023/06/14 05:38:44;;;;;;;6.43;3.40;;;25.50;49.00;;;;;;4218364;27;20707;-56
2023/06/14 05:41:26;;;;;;;6.07;3.60;;;25.50;48.80;;;;;;4228101;27;20097;-56
2023/06/14 05:44:09;;;;;;;3.72;3.08;;;25.60;48.60;;;;;;4227403;27;20058;-55
2023/06/14 05:46:49;;;;;;;3.90;3.10;;;25.70;48.40;;;;;;4220441;27;20055;-54
2023/06/14 05:49:31;;;;;;;6.03;2.70;;;25.70;48.40;;;;;;4208417;28;20395;-55
2023/06/14 05:52:12;;;;;;;5.88;2.72;;;25.70;48.40;;;;;;4217572;28;20055;-55
2023/06/14 05:54:54;;;;;;;5.30;2.97;;;25.80;48.50;;;;;;4227091;27;20382;-56
2023/06/14 05:57:35;;;;;;;4.43;2.65;;;25.70;48.20;;;;;;4213667;27;20059;-56
2023/06/14 06:00:19;;;;;;;4.35;3.00;;;25.70;48.10;;;;;;4199230;28;20130;-54
2023/06/14 06:03:00;;;;;;;2.90;2.58;;;25.60;48.00;;;;;;4205770;28;20059;-56
2023/06/14 06:05:41;;;;;;;3.53;3.22;;;25.60;48.20;;;;;;4227559;27;20051;-55
2023/06/14 06:08:22;;;;;;;3.58;2.90;;;25.60;48.20;;;;;;4226192;28;20398;-54
2023/06/14 06:11:03;;;;;;;5.20;3.22;;;25.60;48.30;;;;;;4210761;28;20059;-55
2023/06/14 06:13:44;;;;;;;2.90;2.70;;;25.60;48.40;;;;;;4239622;27;20065;-58
2023/06/14 06:16:26;;;;;;;;;;;25.60;48.40;;;;;;4224804;28;20189;-56
2023/06/14 06:19:07;;;;;;;2.92;2.72;;;25.70;48.40;;;;;;4220291;28;19927;-54
2023/06/14 06:21:48;;;;;;;3.03;2.67;;;25.70;48.40;;;;;;4199740;28;20402;-58
2023/06/14 06:24:29;;;;;;;6.00;2.97;;;25.70;48.50;;;;;;4224085;27;20047;-58
2023/06/14 06:27:12;;;;;;;4.78;2.72;;;25.80;48.50;;;;;;4235194;27;20497;-59
2023/06/14 06:29:53;;;;;;;3.75;2.70;;;25.80;48.30;;;;;;4227079;28;20055;-58
2023/06/14 06:32:35;;;;;;;3.22;2.92;;;25.90;48.10;;;;;;4226858;27;20055;-58
2023/06/14 06:35:16;;;;;;;4.03;2.88;;;25.90;48.00;;;;;;4223075;27;20104;-59
2023/06/14 06:37:57;;;;;;;;;;;25.90;48.00;;;;;;4213434;27;20075;-58
2023/06/14 06:40:38;;;;;;;2.80;2.60;;;25.90;48.00;;;;;;4217446;28;19927;-58
2023/06/14 06:43:20;;;;;;;4.18;2.67;;;26.00;48.10;;;;;;4226891;27;20051;-58
2023/06/14 06:46:02;;;;;;;5.25;2.83;;;26.10;48.10;;;;;;4217343;28;20058;-58
2023/06/14 06:48:44;;;;;;;;;;;26.10;47.90;;;;;;4222955;27;20061;-58
2023/06/14 06:51:24;;;;;;;3.40;2.50;;;26.20;47.90;;;;;;4220439;28;20068;-58
2023/06/14 06:54:05;;;;;;;;;;;26.20;47.90;;;;;;4224674;27;20050;-58
2023/06/14 06:56:47;;;;;;;7.32;2.40;;;26.30;47.70;;;;;;4237795;27;19971;-58
2023/06/14 06:59:28;;;;;;;3.80;2.45;;;26.30;47.50;;;;;;4210262;28;20694;-58
2023/06/14 07:02:09;;;;;;;4.53;2.42;;;26.40;47.10;;;;;;4198978;28;20052;-59
2023/06/14 07:04:51;;;;;;;2.30;2.20;;;26.40;47.30;;;;;;4215801;28;20061;-64
2023/06/14 07:07:32;;;;;;;4.20;2.67;;;26.40;47.50;;;;;;4222695;28;20047;-61
2023/06/14 07:10:14;;;;;;;4.40;2.15;;;26.50;47.00;;;;;;4225065;27;20539;-59
2023/06/14 07:12:54;;;;;;;4.68;2.42;;;26.50;46.80;;;;;;4212041;28;20516;-54
2023/06/14 07:15:36;;;;;;;3.70;2.25;;;26.60;46.90;;;;;;4225081;28;20180;-51
2023/06/14 07:18:16;;;;;;;4.85;2.10;;;26.60;46.70;;;;;;4234375;27;20103;-53
2023/06/14 07:20:59;;;;;;;3.42;2.25;;;26.60;46.50;;;;;;4233537;27;20055;-51
2023/06/14 07:23:41;;;;;;;4.00;2.30;;;26.60;46.80;;;;;;4225356;28;20057;-55
2023/06/14 07:26:22;;;;;;;5.05;2.33;;;26.60;46.60;;;;;;4226317;27;20409;-55
2023/06/14 07:29:03;;;;;;;3.17;1.80;;;26.70;46.60;;;;;;4226121;27;20116;-55
2023/06/14 07:31:44;;;;;;;3.75;2.03;;;26.70;46.80;;;;;;4226352;27;20153;-53
2023/06/14 07:34:26;;;;;;;4.65;2.25;;;26.70;47.00;;;;;;4226153;28;20042;-54
2023/06/14 07:37:08;;;;;;;;;;;26.60;47.70;;;;;;4226796;27;20054;-54
2023/06/14 07:39:49;;;;;;;2.78;2.17;;;26.60;47.30;;;;;;4210570;28;20370;-55
2023/06/14 07:42:31;;;;;;;6.30;2.45;;;26.60;47.20;;;;;;4209286;28;20051;-54
2023/06/14 07:45:14;;;;;;;3.58;2.70;;;26.60;46.90;;;;;;4208444;28;20506;-51
2023/06/14 07:47:56;;;;;;;2.40;2.03;;;26.60;46.90;;;;;;4225727;28;20059;-54
2023/06/14 07:50:37;;;;;;;6.80;2.28;;;26.60;47.00;;;;;;4207405;28;20081;-50
2023/06/14 07:53:19;;;;;;;2.28;2.08;;;26.60;46.60;;;;;;4209079;28;20047;-53
2023/06/14 07:56:01;;;;;;;4.15;2.22;;;26.60;46.70;;;;;;4209000;28;20185;-51
2023/06/14 07:58:42;;;;;;;5.00;2.53;;;26.50;46.10;;;;;;4208943;28;20091;-52
2023/06/14 08:01:25;;;;;;;3.70;2.00;;;26.50;46.00;;;;;;4208942;28;20055;-53
2023/06/14 08:04:06;;;;;;;7.43;2.63;;;26.50;45.90;;;;;;4209272;28;20062;-51
2023/06/14 08:06:47;;;;;;;5.10;2.30;;;26.50;45.70;;;;;;4209292;28;20055;-55
2023/06/14 08:09:30;;;;;;;2.63;2.35;;;26.50;45.80;;;;;;4223902;28;20063;-50
2023/06/14 08:12:12;;;;;;;3.17;1.85;;;26.50;45.70;;;;;;4225697;28;20058;-54
2023/06/14 08:14:53;;;;;;;2.10;1.98;;;26.40;45.40;;;;;;4224806;28;20047;-53
2023/06/14 08:17:48;;;;;;;3.20;1.80;;;26.40;45.40;;;;;;4224057;28;20043;-51
2023/06/14 08:20:31;;;;;;;2.63;2.05;;;26.40;45.30;;;;;;4225427;28;20065;-51
2023/06/14 08:23:13;;;;;;;4.78;2.28;;;26.40;45.40;;;;;;4225935;28;20143;-53
2023/06/14 08:26:01;;;;;;;4.15;2.08;;;26.40;45.50;;;;;;4225616;28;20058;-54
2023/06/14 08:28:42;;;;;;;2.45;2.17;;;26.40;45.00;;;;;;4225831;28;20054;-50
2023/06/14 08:31:23;;;;;;;2.35;1.90;;;26.40;45.50;;;;;;4224706;28;20124;-54
2023/06/14 08:34:04;;;;;;;2.88;2.58;;;26.50;45.10;;;;;;4208826;28;20252;-53
2023/06/14 08:36:46;;;;;;;2.65;2.22;;;26.40;46.10;;;;;;4208775;28;20052;-50
2023/06/14 08:39:28;;;;;;;;;;;26.50;46.30;;;;;;4224585;28;20058;-50
2023/06/14 08:42:11;;;;;;;2.17;2.08;;;26.50;46.40;;;;;;4223853;28;20274;-52
2023/06/14 08:45:00;;;;;;;2.72;2.30;;;26.50;46.30;;;;;;4225618;28;20066;-53
2023/06/14 08:47:41;;;;;;;2.72;2.13;;;26.50;46.40;;;;;;4223081;28;20179;-49
2023/06/14 08:50:23;;;;;;;;;;;26.50;46.00;;;;;;4209293;28;20047;-58
2023/06/14 08:53:13;;;;;;;3.20;2.20;;;26.60;46.20;;;;;;4207657;28;19943;-57
2023/06/14 08:55:55;;;;;;;3.15;2.50;;;26.50;46.40;;;;;;4208987;28;20463;-58
2023/06/14 08:58:40;;;;;;;2.65;2.45;;;26.50;46.40;;;;;;4212190;28;20509;-58
2023/06/14 09:01:21;;;;;;;5.13;2.30;;;26.60;47.20;;;;;;4225960;27;20043;-57
2023/06/14 09:04:05;;;;;;;3.38;2.42;;;26.60;46.00;;;;;;4235999;27;20220;-58
2023/06/14 09:06:46;;;;;;;2.25;2.13;;;26.60;45.80;;;;;;4231530;27;20038;-57
2023/06/14 09:09:26;;;;;;;;;;;26.70;45.70;;;;;;4245847;27;20054;-57
2023/06/14 09:12:10;;;;;;;4.10;2.10;;;26.70;45.30;;;;;;4231766;27;19984;-57
2023/06/14 09:14:53;;;;;;;3.47;1.90;;;26.70;46.30;;;;;;4217451;27;20050;-57
2023/06/14 09:17:35;;;;;;;2.05;1.95;;;26.70;45.60;;;;;;4210285;28;20051;-53
2023/06/14 09:20:18;;;;;;;4.00;2.35;;;26.70;45.70;;;;;;4218095;28;20096;-54
2023/06/14 09:23:01;;;;;;;7.13;2.10;;;26.70;45.30;;;;;;4223725;27;20120;-51
2023/06/14 09:25:47;;;;;;;2.30;2.10;;;26.70;45.40;;;;;;4225311;28;20054;-50
2023/06/14 09:28:29;;;;;;;3.15;2.28;;;26.80;45.10;;;;;;4223059;27;20054;-50
2023/06/14 09:31:11;;;;;;;2.00;1.80;;;26.80;45.10;;;;;;4211691;28;20128;-53
2023/06/14 09:33:55;;;;;;;2.60;2.40;;;26.80;45.30;;;;;;4211469;28;20120;-51
2023/06/14 09:36:36;;;;;;;2.17;1.98;;;26.80;45.50;;;;;;4228079;27;20050;-51
2023/06/14 09:39:18;;;;;;;;;;;26.80;45.60;;;;;;4227645;28;20050;-51
2023/06/14 09:41:59;;;;;;;2.25;2.13;;;26.90;45.90;;;;;;4211454;28;19988;-50
2023/06/14 09:44:40;;;;;;;;;;;26.90;45.00;;;;;;4211918;28;20522;-54
2023/06/14 09:47:23;;;;;;;5.07;2.00;;;26.90;45.00;;;;;;4211097;28;19934;-54
2023/06/14 09:50:04;;;;;;;2.65;2.45;;;26.90;45.20;;;;;;4221109;28;20054;-52
2023/06/14 09:52:49;;;;;;;3.17;1.98;;;26.90;45.10;;;;;;4194466;28;20055;-54
2023/06/14 09:55:35;;;;;;;2.50;2.33;;;26.90;44.90;;;;;;4192885;28;20047;-53
2023/06/14 09:58:20;;;;;;;3.35;2.28;;;26.90;44.70;;;;;;4194011;28;20117;-49
2023/06/14 10:01:01;;;;;;;2.78;2.13;;;26.90;44.70;;;;;;4224096;27;20058;-52
2023/06/14 10:03:46;;;;;;;1.98;1.88;;;27.00;45.30;;;;;;4214571;28;20092;-52
2023/06/14 10:06:31;;;;;;;2.00;1.90;;;27.00;44.90;;;;;;4230231;27;20050;-51
2023/06/14 10:09:12;;;;;;;3.25;1.92;;;27.00;44.90;;;;;;4226446;27;20058;-54
2023/06/14 10:11:53;;;;;;;2.08;1.73;;;27.00;44.70;;;;;;4211038;28;20055;-52
2023/06/14 10:14:35;;;;;;;2.83;2.22;;;27.00;44.80;;;;;;4194130;28;20067;-53
2023/06/14 10:17:26;;;;;;;2.97;2.50;;;27.00;44.60;;;;;;4201794;28;20059;-49
2023/06/14 10:20:26;;;;;;;3.25;2.20;;;27.00;44.60;;;;;;4226827;27;20050;-49
2023/06/14 10:23:12;;;;;;;2.42;2.00;;;27.00;44.40;;;;;;4225386;27;20524;-54
2023/06/14 10:25:59;;;;;;;3.85;2.08;;;27.10;44.60;;;;;;4226109;27;20440;-54
2023/06/14 10:28:40;;;;;;;4.72;2.00;;;27.10;44.60;;;;;;4210640;28;20088;-54
2023/06/14 10:31:21;;;;;;;;;;;27.10;44.40;;;;;;4225324;28;20657;-54
2023/06/14 10:34:02;;;;;;;4.57;1.80;;;27.10;44.70;;;;;;4238506;27;19925;-54
2023/06/14 10:36:45;;;;;;;5.50;2.15;;;27.10;44.50;;;;;;4210223;28;20121;-53
2023/06/14 10:39:26;;;;;;;3.38;2.00;;;27.10;44.10;;;;;;4211275;28;20059;-59
2023/06/14 10:42:07;;;;;;;3.95;2.10;;;27.10;44.00;;;;;;4201751;28;20062;-60
2023/06/14 10:44:51;;;;;;;3.47;2.20;;;27.10;43.90;;;;;;4237136;27;20114;-59
2023/06/14 10:47:34;;;;;;;1.90;1.80;;;27.10;44.00;;;;;;4217422;27;20104;-58
2023/06/14 10:50:19;;;;;;;3.03;2.25;;;27.10;43.90;;;;;;4221043;28;20135;-56
2023/06/14 10:53:02;;;;;;;2.60;1.95;;;27.10;44.10;;;;;;4229499;27;20076;-58
2023/06/14 10:55:44;;;;;;;2.28;1.55;;;27.10;43.80;;;;;;4243897;27;20143;-57
2023/06/14 10:58:25;;;;;;;4.40;2.17;;;27.10;43.70;;;;;;4235316;27;20063;-57
2023/06/14 11:01:06;;;;;;;3.75;1.85;;;27.10;43.80;;;;;;4208645;28;20093;-57
2023/06/14 11:03:53;;;;;;;1.95;1.55;;;27.10;43.70;;;;;;4221327;27;20176;-58
2023/06/14 11:06:48;;;;;;;3.10;1.70;;;27.10;43.70;;;;;;4209874;28;20608;-58
2023/06/14 11:10:00;;;;;;;1.88;1.42;;;27.10;43.70;;;;;;4209707;28;20051;-57
2023/06/14 11:12:46;;;;;;;4.55;1.40;;;27.10;43.80;;;;;;4212371;27;20247;-57
2023/06/14 11:15:30;;;;;;;1.60;1.50;;;27.10;44.00;;;;;;4208447;28;20054;-57
2023/06/14 11:18:12;;;;;;;2.70;1.13;;;27.10;43.20;;;;;;4209680;28;20058;-57
2023/06/14 11:20:53;;;;;;;1.90;1.02;;;27.10;43.40;;;;;;4224888;27;20050;-58
2023/06/14 11:23:35;;;;;;;3.28;1.35;;;27.10;43.90;;;;;;4209210;28;20454;-57
2023/06/14 11:26:17;;;;;;;1.80;1.70;;;27.10;43.70;;;;;;4208973;28;20055;-58
2023/06/14 11:28:59;;;;;;;4.05;2.00;;;27.10;43.50;;;;;;4210756;28;20403;-58
2023/06/14 11:31:45;;;;;;;1.92;1.83;;;27.10;43.70;;;;;;4220042;27;20184;-57
2023/06/14 11:34:26;;;;;;;1.55;1.20;;;27.10;43.20;;;;;;4241971;27;20058;-53
2023/06/14 11:37:07;;;;;;;2.42;1.67;;;27.10;43.60;;;;;;4206550;28;20199;-53
2023/06/14 11:39:49;;;;;;;2.83;1.80;;;27.10;43.40;;;;;;4207699;28;20177;-53
2023/06/14 11:42:31;;;;;;;3.80;1.55;;;27.10;43.40;;;;;;4224433;27;20046;-52
2023/06/14 11:45:12;;;;;;;2.70;1.58;;;27.10;43.50;;;;;;4226022;27;20554;-53
2023/06/14 11:47:56;;;;;;;3.65;1.60;;;27.10;43.40;;;;;;4225784;27;20058;-58
2023/06/14 11:50:39;;;;;;;3.05;1.75;;;27.10;43.50;;;;;;4226078;27;20055;-58
2023/06/14 11:53:20;;;;;;;7.57;1.58;;;27.10;43.40;;;;;;4229813;27;20119;-58
2023/06/14 11:56:01;;;;;;;;;;;27.10;43.60;;;;;;4243551;27;20053;-58
2023/06/14 11:58:45;;;;;;;2.05;1.30;;;27.10;43.90;;;;;;4231107;27;19925;-59
2023/06/14 12:01:26;;;;;;;1.55;1.40;;;27.20;44.20;;;;;;4225593;28;20046;-58
2023/06/14 12:04:07;;;;;;;;;;;27.20;43.60;;;;;;4225136;27;20057;-58
2023/06/14 12:06:48;;;;;;;1.75;1.30;;;27.20;44.20;;;;;;4209082;28;19931;-58
2023/06/14 12:09:29;;;;;;;1.55;1.45;;;27.20;44.00;;;;;;4233801;27;20062;-58
2023/06/14 12:12:10;;;;;;;1.60;1.50;;;27.20;43.50;;;;;;4242883;27;20050;-53
2023/06/14 12:14:54;;;;;;;6.22;1.70;;;27.30;43.40;;;;;;4242954;27;20400;-54
2023/06/14 12:17:38;;;;;;;2.10;1.33;;;27.30;43.60;;;;;;4229220;27;20055;-51
2023/06/14 12:20:21;;;;;;;4.05;1.60;;;27.30;43.20;;;;;;4211341;28;20144;-54
2023/06/14 12:23:05;;;;;;;1.67;1.58;;;27.40;43.20;;;;;;4208856;28;20475;-52
2023/06/14 12:25:46;;;;;;;2.05;1.50;;;27.40;43.20;;;;;;4208329;28;20109;-55
2023/06/14 12:28:32;;;;;;;;;;;27.40;43.30;;;;;;4206300;28;20051;-53
2023/06/14 12:31:16;;;;;;;2.58;1.30;;;27.40;43.00;;;;;;4208742;28;19994;-53
2023/06/14 12:33:57;;;;;;;4.20;1.60;;;27.40;42.50;;;;;;4208961;28;20055;-52
2023/06/14 12:36:41;;;;;;;1.55;1.40;;;27.40;42.50;;;;;;4208890;28;20061;-54
2023/06/14 12:39:24;;;;;;;3.85;1.42;;;27.40;42.90;;;;;;4213308;28;20046;-55
2023/06/14 12:42:06;;;;;;;3.83;1.58;;;27.40;42.70;;;;;;4225754;28;20084;-52
2023/06/14 12:44:47;;;;;;;14.77;3.70;;;27.40;42.90;;;;;;4219533;27;20050;-52
2023/06/14 12:47:29;;;;;;;;;;;27.50;43.70;;;;;;4207982;28;20071;-54
2023/06/14 12:50:11;;;;;;;1.70;1.60;;;27.50;42.90;;;;;;4211949;28;20390;-50
2023/06/14 12:52:55;;;;;;;5.88;1.85;;;27.50;43.10;;;;;;4193017;28;20055;-55
2023/06/14 12:55:39;;;;;;;1.80;1.60;;;27.50;42.40;;;;;;4204159;28;20150;-55
2023/06/14 12:58:20;;;;;;;1.90;1.73;;;27.60;42.10;;;;;;4212365;28;20075;-55
2023/06/14 13:01:01;;;;;;;2.40;1.52;;;27.60;42.20;;;;;;4208436;28;20059;-53
2023/06/14 13:03:43;;;;;;;2.03;1.60;;;27.60;41.80;;;;;;4192084;28;20097;-54
2023/06/14 13:06:25;;;;;;;1.63;1.45;;;27.60;41.90;;;;;;4191765;28;20517;-53
2023/06/14 13:09:07;;;;;;;1.80;1.42;;;27.60;42.30;;;;;;4195803;28;20059;-51
2023/06/14 13:11:49;;;;;;;1.55;1.55;;;27.60;42.40;;;;;;4214649;28;20053;-58
2023/06/14 13:14:29;;;;;;;;;;;27.60;42.10;;;;;;4225894;28;20050;-58
2023/06/14 13:17:11;;;;;;;1.85;1.75;;;27.60;42.60;;;;;;4208419;28;19927;-58
2023/06/14 13:19:53;;;;;;;2.47;1.65;;;27.60;42.20;;;;;;4218561;27;20184;-55
2023/06/14 13:22:35;;;;;;;1.90;1.80;;;27.70;42.20;;;;;;4224959;28;20059;-58
2023/06/14 13:25:16;;;;;;;1.70;1.60;;;27.70;41.90;;;;;;4225267;28;20046;-58
2023/06/14 13:27:57;;;;;;;1.48;1.40;;;27.60;42.10;;;;;;4215515;27;20440;-58
2023/06/14 13:30:38;;;;;;;;;;;27.70;41.80;;;;;;4225665;28;20047;-58
2023/06/14 13:33:19;;;;;;;3.58;1.92;;;27.70;42.50;;;;;;4207317;28;19931;-58
2023/06/14 13:36:02;;;;;;;2.97;1.30;;;27.70;42.50;;;;;;4207774;28;20100;-58
2023/06/14 13:38:43;;;;;;;3.53;1.80;;;27.70;42.70;;;;;;4208417;28;20039;-58
2023/06/14 13:41:31;;;;;;;4.63;1.80;;;27.70;42.20;;;;;;4225125;28;20046;-58
2023/06/14 13:44:14;;;;;;;1.48;1.38;;;27.70;43.10;;;;;;4226350;28;20047;-58
2023/06/14 13:46:56;;;;;;;9.73;1.98;;;27.70;42.10;;;;;;4237496;27;20050;-59
2023/06/14 13:49:37;;;;;;;4.32;1.80;;;27.70;41.60;;;;;;4227775;27;20251;-58
2023/06/14 13:52:19;;;;;;;;;;;27.70;41.60;;;;;;4211650;28;20047;-58
2023/06/14 13:55:01;;;;;;;5.35;1.80;;;27.80;42.10;;;;;;4222111;27;19957;-59
2023/06/14 13:57:41;;;;;;;2.00;1.90;;;27.80;41.80;;;;;;4227863;27;20125;-59
2023/06/14 14:00:22;;;;;;;;;;;27.80;42.80;;;;;;4245377;27;20485;-59
2023/06/14 14:03:04;;;;;;;;;;;27.80;42.50;;;;;;4245014;27;19934;-58
2023/06/14 14:05:45;;;;;;;3.88;2.03;;;27.80;42.50;;;;;;4244573;27;20391;-57
2023/06/14 14:08:27;;;;;;;;;;;27.80;42.60;;;;;;4244993;27;20050;-60
2023/06/14 14:11:08;;;;;;;1.98;1.63;;;27.80;42.50;;;;;;4228744;27;20293;-54